Etusivu
METAR-TAF:

METAR-TAF

Lentoasemat :

Kairouan, Tunisia

Leveyspiiri: 35-40N, Pituuspiiri: 010-06E, korkeus merenpinnasta: 60 m

Tämänhetkinen sää

Tämä raportti tehtiin 15 minuuttia sitten, kello 14.00 UTC
Tuuli 10 kn etelästä/lounaasta, vaihdellen etelän/kaakon ja lännen välillä
Lämpötila 21°C
Kosteus 38%
Ilmanpaine 1003 hPa
Näkyvyys: 6000 m

METAR: DTTK 281400Z 20010KT 150V270 6000 NSC 21/06 Q1003

Aika: 15:15 (14:15 UTC)


TAF: puuttuu

Säähavainnot ja -ennusteet yli 4000 lentoasemalta (METAR- ja TAF-raportit).

Käytössä olevat sääasemat on merkitty karttaan keltaisilla ja punaisilla pisteillä.

Aseta hiiri pisteen päälle nähdäksesi sääaseman nimen.

Klikkaa sitten nähdäksesi säähavainnot ja -ennusteet.

Kartan vaihtaminen: klikkaa mustalla rastilla varustettuja vihreitä pisteitä, niin voit zoomata sisään; viivalla varustettua vihreää pistettä, niin voit zoomata ulos tai vihreitä nuolia, niin pääset viereisille kartoille.


METAR-TAF: